Time;durP1;ratioP1;P1;durP2;ratioP2;P2;SDS_P1;SDS_P2;PMS_P1;PMS_P2;Temp;Humidity;BMP_temperature;BMP_pressure;BME280_temperature;BME280_humidity;BME280_pressure;Samples;Min_cycle;Max_cycle;Signal;HPM_P1;HPM_P2
2023/09/12 00:01:06;;;;;;;10.68;9.65;;;24.40;76.10;;;;;;10371288;28;20026;-58
2023/09/12 00:06:07;;;;;;;11.60;10.40;;;24.40;76.10;;;;;;10370714;28;20026;-58
2023/09/12 00:11:11;;;;;;;13.07;11.70;;;24.40;76.20;;;;;;10371015;28;20504;-58
2023/09/12 00:16:11;;;;;;;12.05;10.77;;;24.40;76.20;;;;;;10386239;28;20085;-58
2023/09/12 00:21:12;;;;;;;11.55;10.35;;;24.40;76.10;;;;;;10411394;28;20429;-58
2023/09/12 00:26:13;;;;;;;11.50;10.30;;;24.30;76.30;;;;;;10370792;28;20037;-58
2023/09/12 00:31:14;;;;;;;11.27;10.18;;;24.30;76.00;;;;;;10390096;28;20030;-58
2023/09/12 00:36:14;;;;;;;11.73;10.20;;;24.30;76.10;;;;;;10369574;28;20818;-57
2023/09/12 00:41:15;;;;;;;11.23;10.10;;;24.30;76.10;;;;;;10369747;28;20044;-57
2023/09/12 00:46:21;;;;;;;11.98;10.68;;;24.30;76.00;;;;;;10369390;28;20041;-58
2023/09/12 00:51:23;;;;;;;11.00;9.85;;;24.30;76.00;;;;;;10369495;28;20045;-58
2023/09/12 00:56:26;;;;;;;11.15;9.75;;;24.30;76.10;;;;;;10368992;28;20488;-59
2023/09/12 01:01:27;;;;;;;12.18;10.20;;;24.30;76.00;;;;;;10369282;28;20030;-57
2023/09/12 01:06:29;;;;;;;11.75;10.55;;;24.30;76.00;;;;;;10368973;28;20048;-58
2023/09/12 01:11:31;;;;;;;11.38;10.18;;;24.30;76.00;;;;;;10388402;28;20045;-59
2023/09/12 01:16:31;;;;;;;12.63;10.48;;;24.30;76.00;;;;;;10408798;28;20057;-58
2023/09/12 01:22:07;;;;;;;12.15;10.77;;;24.30;76.00;;;;;;10409299;28;20029;-58
2023/09/12 01:27:21;;;;;;;11.65;9.98;;;24.30;76.00;;;;;;10408652;28;20025;-59
2023/09/12 01:32:22;;;;;;;10.68;9.65;;;24.30;75.90;;;;;;10390168;28;20168;-59
2023/09/12 01:37:23;;;;;;;12.52;11.25;;;24.30;75.90;;;;;;10367921;28;20088;-58
2023/09/12 01:42:27;;;;;;;11.15;10.02;;;24.30;75.90;;;;;;10367722;28;20040;-58
2023/09/12 01:47:29;;;;;;;12.02;10.82;;;24.30;76.00;;;;;;10367702;28;20022;-58
2023/09/12 01:52:30;;;;;;;10.15;9.15;;;24.30;75.90;;;;;;10401363;28;20706;-59
2023/09/12 01:57:32;;;;;;;10.85;9.82;;;24.30;75.90;;;;;;10402298;28;20056;-59
2023/09/12 02:02:33;;;;;;;10.68;9.57;;;24.20;75.80;;;;;;10402419;28;20147;-58
2023/09/12 02:07:37;;;;;;;10.65;9.65;;;24.30;75.80;;;;;;10416127;28;20038;-59
2023/09/12 02:12:39;;;;;;;10.32;9.23;;;24.20;75.80;;;;;;10416399;28;20128;-58
2023/09/12 02:17:40;;;;;;;11.73;10.52;;;24.20;75.70;;;;;;10377717;28;20551;-58
2023/09/12 02:22:40;;;;;;;10.40;9.35;;;24.20;75.70;;;;;;10374948;28;20034;-58
2023/09/12 02:27:41;;;;;;;11.73;10.57;;;24.20;75.60;;;;;;10374944;28;20076;-58
2023/09/12 02:32:42;;;;;;;11.60;9.50;;;24.20;75.70;;;;;;10389116;28;20033;-58
2023/09/12 02:37:43;;;;;;;10.30;8.85;;;24.20;75.70;;;;;;10415003;28;20082;-58
2023/09/12 02:42:44;;;;;;;10.48;9.32;;;24.20;75.60;;;;;;10414950;28;20030;-58
2023/09/12 02:47:46;;;;;;;10.05;9.15;;;24.20;75.60;;;;;;10413521;28;20060;-59
2023/09/12 02:52:46;;;;;;;10.27;8.98;;;24.20;75.60;;;;;;10415251;28;20485;-58
2023/09/12 02:57:47;;;;;;;9.55;8.55;;;24.20;75.50;;;;;;10414450;28;20025;-58
2023/09/12 03:02:48;;;;;;;9.48;8.45;;;24.20;75.50;;;;;;10428425;28;20037;-58
2023/09/12 03:07:49;;;;;;;8.57;7.78;;;24.20;75.40;;;;;;10413747;28;20027;-58
2023/09/12 03:12:49;;;;;;;9.32;8.40;;;24.20;75.50;;;;;;10413827;28;20112;-58
2023/09/12 03:17:50;;;;;;;9.40;8.48;;;24.20;76.30;;;;;;10413556;28;20048;-59
2023/09/12 03:22:51;;;;;;;8.32;7.47;;;24.20;75.60;;;;;;10401513;28;20029;-58
2023/09/12 03:27:52;;;;;;;7.65;6.85;;;24.20;75.50;;;;;;10374889;28;20087;-58
2023/09/12 03:32:52;;;;;;;8.02;7.22;;;24.10;75.40;;;;;;10388352;28;20049;-59
2023/09/12 03:37:53;;;;;;;8.25;7.45;;;24.10;75.40;;;;;;10388001;28;20026;-55
2023/09/12 03:42:54;;;;;;;8.73;7.82;;;24.10;75.50;;;;;;10385230;28;20028;-57
2023/09/12 03:47:55;;;;;;;8.75;7.85;;;24.20;75.90;;;;;;10384990;28;20115;-57
2023/09/12 03:52:56;;;;;;;9.10;8.20;;;24.20;76.50;;;;;;10385201;28;20029;-56
2023/09/12 03:57:57;;;;;;;10.30;8.35;;;24.20;76.70;;;;;;10384203;28;20029;-57
2023/09/12 04:02:57;;;;;;;10.05;7.80;;;24.30;76.50;;;;;;10384498;28;20412;-56
2023/09/12 04:07:58;;;;;;;8.07;7.28;;;24.20;76.30;;;;;;10383412;28;20022;-57
2023/09/12 04:12:59;;;;;;;8.25;7.45;;;24.20;76.30;;;;;;10402906;28;20045;-59
2023/09/12 04:18:00;;;;;;;7.88;7.05;;;24.20;76.40;;;;;;10409854;28;20034;-58
2023/09/12 04:23:05;;;;;;;9.77;8.80;;;24.20;76.10;;;;;;10394150;28;20481;-58
2023/09/12 04:28:05;;;;;;;8.95;8.05;;;24.20;75.80;;;;;;10377590;28;20078;-57
2023/09/12 04:33:06;;;;;;;8.07;7.38;;;24.20;75.70;;;;;;10392462;28;20737;-58
2023/09/12 04:38:07;;;;;;;7.63;6.53;;;24.10;75.50;;;;;;10410362;28;20033;-59
2023/09/12 04:43:08;;;;;;;7.45;6.75;;;24.10;75.50;;;;;;10409108;28;20037;-58
2023/09/12 04:48:08;;;;;;;7.32;6.57;;;24.10;75.50;;;;;;10410261;28;20041;-58
2023/09/12 04:53:09;;;;;;;7.32;6.50;;;24.10;75.50;;;;;;10380983;28;20041;-58
2023/09/12 04:58:10;;;;;;;8.25;7.45;;;24.10;75.50;;;;;;10366546;28;20100;-59
2023/09/12 05:03:11;;;;;;;8.43;6.47;;;24.10;75.60;;;;;;10365759;28;20036;-57
2023/09/12 05:08:11;;;;;;;8.57;6.80;;;24.10;75.90;;;;;;10364744;28;20030;-57
2023/09/12 05:13:13;;;;;;;8.52;6.07;;;24.20;76.20;;;;;;10362354;28;20863;-55
2023/09/12 05:18:14;;;;;;;12.52;7.18;;;24.20;76.40;;;;;;10398570;28;20108;-57
2023/09/12 05:23:14;;;;;;;8.18;6.40;;;24.30;76.10;;;;;;10392284;28;20397;-55
2023/09/12 05:28:15;;;;;;;12.18;6.50;;;24.30;76.00;;;;;;10375659;28;20025;-58
2023/09/12 05:33:17;;;;;;;8.45;6.00;;;24.30;75.80;;;;;;10392000;28;20477;-58
2023/09/12 05:38:17;;;;;;;10.20;6.50;;;24.20;75.70;;;;;;10390833;28;20036;-58
2023/09/12 05:43:18;;;;;;;7.05;5.43;;;24.20;75.80;;;;;;10380516;28;20025;-60
2023/09/12 05:48:19;;;;;;;7.72;6.65;;;24.20;75.80;;;;;;10381547;28;20037;-57
2023/09/12 05:53:20;;;;;;;8.38;5.38;;;24.20;76.10;;;;;;10385766;28;20400;-57
2023/09/12 05:58:20;;;;;;;13.75;6.82;;;24.20;75.90;;;;;;10369822;28;20036;-57
2023/09/12 06:03:21;;;;;;;14.15;6.85;;;24.20;76.00;;;;;;10367236;28;20022;-58
2023/09/12 06:08:22;;;;;;;13.02;7.38;;;24.20;76.20;;;;;;10373196;28;20057;-58
2023/09/12 06:13:23;;;;;;;10.73;7.20;;;24.20;76.10;;;;;;10367216;28;20073;-57
2023/09/12 06:18:24;;;;;;;24.00;9.13;;;24.10;76.00;;;;;;10401064;28;20025;-57
2023/09/12 06:23:25;;;;;;;16.02;8.77;;;24.10;76.10;;;;;;10389826;28;20099;-57
2023/09/12 06:28:27;;;;;;;18.20;7.50;;;24.10;76.20;;;;;;10402514;28;20029;-57
2023/09/12 06:33:28;;;;;;;12.82;8.77;;;24.10;76.10;;;;;;10373950;28;20030;-57
2023/09/12 06:38:29;;;;;;;12.27;9.25;;;24.10;76.00;;;;;;10370912;28;20026;-57
2023/09/12 06:43:30;;;;;;;11.07;7.20;;;24.00;76.00;;;;;;10376420;28;20053;-57
2023/09/12 06:48:31;;;;;;;11.90;7.72;;;24.00;76.20;;;;;;10389256;28;20038;-57
2023/09/12 06:53:32;;;;;;;9.45;7.18;;;24.00;76.20;;;;;;10386851;28;20060;-57
2023/09/12 06:58:33;;;;;;;10.55;7.63;;;24.00;76.20;;;;;;10386081;28;20025;-56
2023/09/12 07:03:35;;;;;;;10.63;7.65;;;24.00;76.20;;;;;;10372071;28;20080;-56
2023/09/12 07:08:36;;;;;;;11.30;8.70;;;24.00;76.10;;;;;;10393113;28;20026;-56
2023/09/12 07:13:37;;;;;;;13.05;8.93;;;24.00;76.10;;;;;;10402115;28;20056;-56
2023/09/12 07:18:38;;;;;;;11.63;9.05;;;24.00;76.10;;;;;;10412845;28;20033;-56
2023/09/12 07:23:39;;;;;;;11.48;8.23;;;24.00;76.10;;;;;;10391546;28;20125;-56
2023/09/12 07:28:39;;;;;;;10.48;8.45;;;24.00;76.10;;;;;;10399680;28;20029;-57
2023/09/12 07:33:41;;;;;;;9.45;8.45;;;24.00;76.00;;;;;;10385021;28;20032;-57
2023/09/12 07:38:42;;;;;;;12.48;9.65;;;24.00;76.20;;;;;;10381948;28;20087;-56
2023/09/12 07:43:42;;;;;;;11.82;9.50;;;24.00;76.00;;;;;;10371641;28;20084;-57
2023/09/12 07:48:43;;;;;;;13.15;10.18;;;24.00;76.00;;;;;;10371317;28;20024;-56
2023/09/12 07:53:44;;;;;;;11.50;9.60;;;24.00;76.70;;;;;;10381743;28;20037;-57
2023/09/12 07:58:44;;;;;;;10.73;9.27;;;24.00;76.10;;;;;;10396949;28;20581;-56
2023/09/12 08:03:45;;;;;;;9.93;8.52;;;24.00;76.20;;;;;;10369898;28;20056;-57
2023/09/12 08:08:46;;;;;;;11.35;9.48;;;24.00;76.30;;;;;;10370101;28;20033;-56
2023/09/12 08:13:49;;;;;;;11.90;10.52;;;24.00;76.30;;;;;;10369101;28;20056;-56
2023/09/12 08:18:50;;;;;;;9.45;8.48;;;24.00;76.00;;;;;;10406507;28;20026;-55
2023/09/12 08:23:51;;;;;;;12.07;9.43;;;24.10;75.70;;;;;;10387592;28;20030;-57
2023/09/12 08:28:51;;;;;;;13.02;11.40;;;24.00;75.80;;;;;;10405460;28;20075;-57
2023/09/12 08:33:52;;;;;;;14.30;11.95;;;24.10;75.90;;;;;;10368784;28;20042;-57
2023/09/12 08:38:53;;;;;;;13.65;10.85;;;24.10;75.90;;;;;;10368713;28;20030;-57
2023/09/12 08:43:55;;;;;;;12.93;9.98;;;24.20;76.50;;;;;;10368352;28;20461;-57
2023/09/12 08:48:57;;;;;;;12.32;9.98;;;24.20;75.90;;;;;;10392328;28;20563;-56
2023/09/12 08:53:59;;;;;;;10.30;9.15;;;24.20;75.90;;;;;;10380574;28;20477;-56
2023/09/12 08:59:01;;;;;;;11.98;10.10;;;24.20;76.00;;;;;;10387166;28;20171;-56
2023/09/12 09:04:03;;;;;;;13.15;10.55;;;24.20;76.00;;;;;;10393214;28;20021;-57
2023/09/12 09:09:08;;;;;;;12.07;9.75;;;24.30;76.60;;;;;;10407013;28;20694;-57
2023/09/12 09:14:09;;;;;;;12.57;9.55;;;24.30;75.90;;;;;;10408638;28;20455;-58
2023/09/12 09:19:10;;;;;;;10.95;9.55;;;24.30;76.00;;;;;;10404147;28;20045;-58
2023/09/12 09:24:15;;;;;;;12.30;10.30;;;24.30;76.00;;;;;;10381801;28;20034;-57
2023/09/12 09:29:18;;;;;;;11.27;10.15;;;24.30;75.90;;;;;;10387521;28;20540;-57
2023/09/12 09:34:21;;;;;;;13.95;9.70;;;24.30;76.00;;;;;;10366643;28;20042;-57
2023/09/12 09:39:28;;;;;;;9.48;7.53;;;24.40;75.90;;;;;;10366965;28;20026;-57
2023/09/12 09:44:30;;;;;;;10.93;8.80;;;24.40;75.90;;;;;;10394636;28;20037;-57
2023/09/12 09:49:34;;;;;;;8.52;7.32;;;24.40;75.90;;;;;;10407741;28;20033;-57
2023/09/12 09:54:34;;;;;;;9.35;8.27;;;24.40;75.90;;;;;;10407269;28;20140;-56
2023/09/12 09:59:36;;;;;;;10.63;8.20;;;24.40;76.00;;;;;;10407830;28;20036;-57
2023/09/12 10:04:38;;;;;;;9.70;7.60;;;24.50;76.10;;;;;;10406701;28;20498;-57
2023/09/12 10:09:40;;;;;;;8.20;6.75;;;24.50;75.50;;;;;;10407332;28;20072;-57
2023/09/12 10:14:42;;;;;;;11.25;7.93;;;24.50;75.60;;;;;;10398848;28;20095;-57
2023/09/12 10:19:54;;;;;;;9.82;7.28;;;24.60;75.90;;;;;;10383194;28;20404;-57
2023/09/12 10:24:57;;;;;;;7.97;6.72;;;24.60;76.30;;;;;;10373776;28;20034;-57
2023/09/12 10:29:59;;;;;;;9.63;6.72;;;24.60;76.50;;;;;;10392570;28;20029;-56
2023/09/12 10:35:03;;;;;;;7.55;6.72;;;24.60;76.40;;;;;;10373378;28;20038;-56
2023/09/12 10:40:07;;;;;;;7.93;7.10;;;24.60;76.40;;;;;;10373942;28;20022;-57
2023/09/12 10:45:09;;;;;;;8.43;7.28;;;24.70;76.30;;;;;;10378391;28;20312;-57
2023/09/12 10:50:10;;;;;;;8.95;7.00;;;24.70;76.30;;;;;;10393817;28;20022;-57
2023/09/12 10:55:19;;;;;;;8.68;6.82;;;24.60;76.20;;;;;;10392607;28;20026;-57
2023/09/12 11:00:20;;;;;;;8.00;6.50;;;24.70;76.30;;;;;;10385330;28;20030;-56
2023/09/12 11:05:27;;;;;;;7.60;6.78;;;24.70;76.00;;;;;;10391407;28;20480;-57
2023/09/12 11:10:31;;;;;;;8.15;6.25;;;24.70;75.80;;;;;;10388330;28;20113;-58
2023/09/12 11:15:34;;;;;;;9.07;7.30;;;24.70;75.80;;;;;;10393685;28;20062;-57
2023/09/12 11:20:57;;;;;;;8.80;7.57;;;24.70;76.00;;;;;;10387842;28;20080;-58
2023/09/12 11:26:11;;;;;;;9.43;6.57;;;24.70;76.00;;;;;;10388122;28;20052;-56
2023/09/12 11:31:11;;;;;;;10.93;7.53;;;24.70;76.60;;;;;;10390752;28;20029;-56
2023/09/12 11:36:18;;;;;;;8.30;6.85;;;24.70;76.40;;;;;;10370859;28;20026;-57
2023/09/12 11:41:48;;;;;;;7.57;6.78;;;24.70;76.30;;;;;;10393787;28;20393;-57
2023/09/12 11:46:50;;;;;;;11.40;7.40;;;24.80;76.30;;;;;;10385759;28;20068;-57
2023/09/12 11:51:53;;;;;;;9.15;6.47;;;24.80;76.30;;;;;;10373348;28;20061;-56
2023/09/12 11:56:56;;;;;;;9.57;6.80;;;24.80;76.20;;;;;;10369740;28;20037;-55
2023/09/12 12:01:57;;;;;;;7.03;6.10;;;24.80;76.40;;;;;;10370205;28;20034;-57
2023/09/12 12:06:58;;;;;;;7.88;6.07;;;24.70;76.40;;;;;;10370023;28;20033;-57
2023/09/12 12:12:15;;;;;;;8.95;6.55;;;24.70;76.50;;;;;;10370374;28;20034;-57
2023/09/12 12:17:16;;;;;;;7.65;6.53;;;24.70;76.60;;;;;;10394001;28;20041;-60
2023/09/12 12:22:16;;;;;;;7.25;5.90;;;24.80;76.60;;;;;;10371075;28;20385;-57
2023/09/12 12:27:17;;;;;;;13.23;5.70;;;24.80;76.30;;;;;;10395866;28;20032;-60
2023/09/12 12:32:19;;;;;;;10.00;6.35;;;24.80;76.60;;;;;;10403353;28;20049;-58
2023/09/12 12:37:20;;;;;;;10.27;6.25;;;24.80;76.80;;;;;;10395900;28;20037;-58
2023/09/12 12:42:23;;;;;;;9.63;6.20;;;25.00;78.60;;;;;;10396352;28;20030;-57
2023/09/12 12:47:24;;;;;;;9.02;6.25;;;24.90;76.80;;;;;;10368513;28;20030;-58
2023/09/12 12:52:26;;;;;;;7.07;5.88;;;24.80;76.90;;;;;;10394702;28;20037;-58
2023/09/12 12:57:26;;;;;;;8.20;5.57;;;24.80;76.90;;;;;;10409500;28;20025;-58
2023/09/12 13:02:27;;;;;;;9.68;6.35;;;24.80;76.80;;;;;;10409527;28;20025;-58
2023/09/12 13:07:28;;;;;;;7.78;6.28;;;24.80;77.30;;;;;;10408570;28;20032;-57
2023/09/12 13:12:29;;;;;;;8.45;6.28;;;24.80;76.60;;;;;;10408518;28;20025;-58
2023/09/12 13:17:30;;;;;;;8.88;5.97;;;24.80;76.40;;;;;;10408241;28;20059;-58
2023/09/12 13:22:31;;;;;;;7.88;5.95;;;24.80;76.40;;;;;;10394323;28;20026;-58
2023/09/12 13:27:31;;;;;;;7.32;5.65;;;24.80;76.30;;;;;;10367154;28;20104;-58
2023/09/12 13:32:33;;;;;;;6.15;5.55;;;24.80;76.40;;;;;;10388648;28;20038;-57
2023/09/12 13:37:33;;;;;;;7.25;5.82;;;24.80;76.30;;;;;;10366241;28;20113;-58
2023/09/12 13:42:34;;;;;;;6.65;5.53;;;24.80;76.20;;;;;;10367040;28;20484;-59
2023/09/12 13:47:35;;;;;;;6.25;5.43;;;24.80;76.10;;;;;;10365535;28;20546;-58
2023/09/12 13:52:36;;;;;;;7.53;5.68;;;24.80;76.10;;;;;;10366770;28;20034;-58
2023/09/12 13:57:36;;;;;;;6.75;5.78;;;24.80;76.00;;;;;;10366633;28;20037;-57
2023/09/12 14:02:37;;;;;;;7.75;4.82;;;24.80;76.00;;;;;;10366348;28;20042;-58
2023/09/12 14:07:39;;;;;;;7.50;5.55;;;24.80;75.90;;;;;;10369067;28;20026;-60
2023/09/12 14:12:40;;;;;;;7.15;5.50;;;24.90;75.60;;;;;;10393737;28;20578;-57
2023/09/12 14:17:41;;;;;;;7.15;4.80;;;24.90;75.40;;;;;;10407909;28;20109;-59
2023/09/12 14:22:43;;;;;;;7.50;5.55;;;24.90;75.40;;;;;;10396672;28;20481;-58
2023/09/12 14:27:44;;;;;;;6.03;5.30;;;24.90;75.50;;;;;;10389612;28;20049;-58
2023/09/12 14:32:45;;;;;;;7.50;5.82;;;24.90;74.90;;;;;;10385165;28;20054;-58
2023/09/12 14:37:46;;;;;;;7.60;5.50;;;24.90;74.50;;;;;;10379303;28;20038;-57
2023/09/12 14:42:46;;;;;;;8.30;6.25;;;24.90;74.70;;;;;;10382569;28;20030;-60
2023/09/12 14:47:47;;;;;;;9.02;6.53;;;24.90;74.40;;;;;;10382669;28;20115;-60
2023/09/12 14:52:48;;;;;;;8.20;5.43;;;24.90;73.60;;;;;;10399294;28;20036;-59
2023/09/12 14:57:49;;;;;;;16.23;7.82;;;24.80;73.30;;;;;;10408791;28;20029;-58
2023/09/12 15:02:50;;;;;;;13.27;8.00;;;24.90;75.40;;;;;;10414880;28;20029;-59
2023/09/12 15:07:51;;;;;;;10.43;6.63;;;24.90;74.60;;;;;;10391376;28;20113;-57
2023/09/12 15:12:53;;;;;;;10.48;6.32;;;25.00;76.40;;;;;;10373550;28;20124;-58
2023/09/12 15:17:54;;;;;;;8.25;6.53;;;25.00;74.40;;;;;;10402462;28;20061;-59
2023/09/12 15:22:54;;;;;;;11.07;6.47;;;25.20;73.70;;;;;;10403432;28;20040;-58
2023/09/12 15:27:55;;;;;;;8.15;5.25;;;25.30;73.30;;;;;;10394583;28;20485;-59
2023/09/12 15:32:56;;;;;;;7.45;5.38;;;25.40;73.10;;;;;;10387872;28;20040;-57
2023/09/12 15:37:56;;;;;;;8.35;5.50;;;25.30;73.20;;;;;;10372308;28;20030;-58
2023/09/12 15:42:57;;;;;;;8.57;4.90;;;25.40;72.80;;;;;;10372222;28;20045;-59
2023/09/12 15:47:58;;;;;;;7.38;4.93;;;25.50;71.90;;;;;;10371748;28;20367;-56
2023/09/12 15:52:59;;;;;;;9.43;5.80;;;25.30;72.20;;;;;;10372087;28;20083;-57
2023/09/12 15:57:59;;;;;;;7.07;4.78;;;25.30;72.50;;;;;;10371612;28;20040;-58
2023/09/12 16:03:01;;;;;;;8.90;5.78;;;25.20;72.80;;;;;;10385782;28;20033;-58
2023/09/12 16:08:01;;;;;;;8.57;5.57;;;25.10;72.80;;;;;;10386705;28;20108;-57
2023/09/12 16:13:02;;;;;;;6.57;4.95;;;25.00;73.10;;;;;;10372863;28;20176;-58
2023/09/12 16:18:04;;;;;;;6.82;5.10;;;25.10;73.80;;;;;;10401287;28;20029;-56
2023/09/12 16:23:04;;;;;;;6.45;4.95;;;25.00;73.70;;;;;;10397076;28;20028;-56
2023/09/12 16:28:05;;;;;;;7.30;5.90;;;24.90;73.90;;;;;;10376874;28;20024;-56
2023/09/12 16:33:06;;;;;;;6.90;5.10;;;24.90;74.20;;;;;;10384072;28;20038;-57
2023/09/12 16:38:07;;;;;;;5.97;5.38;;;24.90;74.30;;;;;;10370001;28;20126;-57
2023/09/12 16:43:08;;;;;;;8.20;6.40;;;24.80;74.30;;;;;;10369678;28;20038;-58
2023/09/12 16:48:09;;;;;;;5.47;4.80;;;24.80;74.40;;;;;;10369638;28;20065;-57
2023/09/12 16:53:10;;;;;;;7.40;5.43;;;24.80;74.20;;;;;;10369530;28;20030;-57
2023/09/12 16:58:11;;;;;;;7.70;5.95;;;24.80;74.60;;;;;;10389011;28;20480;-58
2023/09/12 17:03:12;;;;;;;5.85;4.97;;;24.80;75.20;;;;;;10382495;28;20488;-57
2023/09/12 17:08:12;;;;;;;11.00;5.43;;;24.70;75.10;;;;;;10368787;28;20026;-58
2023/09/12 17:13:13;;;;;;;5.47;4.55;;;24.70;74.70;;;;;;10390929;28;20041;-57
2023/09/12 17:18:14;;;;;;;6.68;4.65;;;24.70;74.60;;;;;;10409384;28;20071;-58
2023/09/12 17:23:15;;;;;;;6.65;5.18;;;24.70;74.60;;;;;;10392445;28;20436;-58
2023/09/12 17:28:15;;;;;;;6.55;5.18;;;24.60;74.80;;;;;;10377282;28;20115;-58
2023/09/12 17:33:16;;;;;;;7.18;5.03;;;24.70;74.80;;;;;;10378694;28;20037;-58
2023/09/12 17:38:17;;;;;;;8.82;5.70;;;24.60;74.80;;;;;;10368233;28;20088;-57
2023/09/12 17:43:18;;;;;;;7.03;5.45;;;24.60;74.80;;;;;;10372717;28;20037;-58
2023/09/12 17:48:19;;;;;;;7.70;6.25;;;24.60;74.90;;;;;;10378487;28;20034;-57
2023/09/12 17:53:22;;;;;;;9.52;5.15;;;24.60;75.00;;;;;;10368217;28;20053;-57
2023/09/12 17:58:23;;;;;;;7.80;5.32;;;24.60;75.20;;;;;;10367560;28;20398;-58
2023/09/12 18:03:26;;;;;;;7.55;4.82;;;24.60;75.40;;;;;;10368069;28;20030;-57
2023/09/12 18:08:27;;;;;;;10.30;5.07;;;24.60;75.50;;;;;;10367204;28;20531;-57
2023/09/12 18:13:28;;;;;;;7.90;5.30;;;24.60;75.50;;;;;;10367587;28;20176;-57
2023/09/12 18:18:28;;;;;;;9.52;5.55;;;24.60;75.40;;;;;;10389147;28;20025;-57
2023/09/12 18:23:29;;;;;;;10.13;5.38;;;24.60;75.80;;;;;;10378691;28;20042;-58
2023/09/12 18:28:51;;;;;;;8.27;4.78;;;24.60;75.60;;;;;;10380073;28;20395;-56
2023/09/12 18:33:52;;;;;;;7.22;5.22;;;24.60;75.30;;;;;;10374362;28;20030;-57
2023/09/12 18:38:52;;;;;;;6.70;4.95;;;24.60;75.50;;;;;;10389335;28;20034;-57
2023/09/12 18:43:53;;;;;;;7.43;5.57;;;24.60;75.80;;;;;;10374794;28;20037;-58
2023/09/12 18:48:54;;;;;;;5.72;4.57;;;24.60;75.70;;;;;;10374245;28;20029;-56
2023/09/12 18:53:55;;;;;;;7.00;5.07;;;24.60;75.70;;;;;;10388840;28;20026;-58
2023/09/12 18:58:55;;;;;;;6.80;4.75;;;24.60;76.10;;;;;;10392414;28;20026;-57
2023/09/12 19:03:56;;;;;;;7.10;4.72;;;24.60;76.60;;;;;;10391501;28;20021;-57
2023/09/12 19:08:57;;;;;;;6.68;5.60;;;24.60;76.20;;;;;;10389424;28;20022;-56
2023/09/12 19:13:57;;;;;;;11.20;7.18;;;24.70;76.80;;;;;;10389946;28;20045;-57
2023/09/12 19:18:58;;;;;;;9.90;6.03;;;24.70;76.60;;;;;;10392182;28;20026;-59
2023/09/12 19:23:59;;;;;;;6.80;4.50;;;24.70;76.30;;;;;;10389240;28;20484;-60
2023/09/12 19:29:01;;;;;;;5.90;4.53;;;24.60;76.20;;;;;;10398354;28;20424;-59
2023/09/12 19:34:03;;;;;;;6.00;4.43;;;24.60;76.30;;;;;;10388279;28;20112;-59
2023/09/12 19:39:04;;;;;;;7.30;4.32;;;24.60;75.90;;;;;;10386933;28;20026;-60
2023/09/12 19:44:05;;;;;;;6.10;4.10;;;24.60;75.90;;;;;;10383347;28;20573;-60
2023/09/12 19:49:07;;;;;;;5.70;4.72;;;24.50;75.80;;;;;;10384271;28;20056;-60
2023/09/12 19:54:07;;;;;;;5.97;5.00;;;24.50;75.70;;;;;;10386849;28;20045;-58
2023/09/12 19:59:08;;;;;;;5.18;4.45;;;24.50;75.70;;;;;;10386782;28;20045;-60
2023/09/12 20:04:09;;;;;;;6.18;4.75;;;24.50;75.70;;;;;;10385404;28;20037;-60
2023/09/12 20:09:11;;;;;;;7.63;5.28;;;24.50;75.90;;;;;;10391831;28;20033;-60
2023/09/12 20:14:11;;;;;;;9.40;5.93;;;24.50;75.70;;;;;;10384697;28;20064;-60
2023/09/12 20:19:12;;;;;;;7.38;5.00;;;24.50;76.00;;;;;;10411007;28;20030;-60
2023/09/12 20:24:13;;;;;;;7.03;5.38;;;24.50;75.90;;;;;;10387425;28;20038;-60
2023/09/12 20:29:14;;;;;;;6.50;4.55;;;24.40;75.80;;;;;;10390157;28;20032;-60
2023/09/12 20:34:14;;;;;;;8.32;5.20;;;24.50;75.90;;;;;;10369986;28;20103;-59
2023/09/12 20:39:25;;;;;;;6.80;5.43;;;24.50;76.00;;;;;;10370392;28;20030;-60
2023/09/12 20:44:26;;;;;;;8.38;5.50;;;24.40;76.00;;;;;;10369616;28;20033;-59
2023/09/12 20:49:27;;;;;;;7.28;5.75;;;24.40;76.10;;;;;;10369871;28;20022;-59
2023/09/12 20:54:27;;;;;;;6.13;5.40;;;24.40;76.10;;;;;;10369182;28;20036;-59
2023/09/12 20:59:28;;;;;;;7.40;5.63;;;24.40;76.30;;;;;;10368377;28;20026;-60
2023/09/12 21:04:30;;;;;;;6.85;5.32;;;24.40;76.30;;;;;;10369185;28;20034;-59
2023/09/12 21:09:30;;;;;;;6.80;6.00;;;24.40;76.20;;;;;;10369007;28;20533;-59
2023/09/12 21:14:31;;;;;;;8.48;5.70;;;24.40;76.10;;;;;;10370065;28;20053;-59
2023/09/12 21:19:32;;;;;;;6.70;5.70;;;24.40;76.10;;;;;;10409880;28;20488;-59
2023/09/12 21:24:34;;;;;;;8.07;5.78;;;24.40;76.10;;;;;;10382561;28;20061;-59
2023/09/12 21:29:35;;;;;;;7.25;5.47;;;24.40;76.00;;;;;;10387873;28;20041;-59
2023/09/12 21:34:36;;;;;;;7.22;6.50;;;24.40;76.00;;;;;;10368118;28;20358;-59
2023/09/12 21:39:37;;;;;;;6.93;6.22;;;24.40;75.90;;;;;;10399939;28;20041;-60
2023/09/12 21:44:38;;;;;;;7.93;6.55;;;24.40;75.90;;;;;;10372306;28;20042;-60
2023/09/12 21:49:39;;;;;;;8.40;6.10;;;24.30;75.80;;;;;;10367934;28;20117;-60
2023/09/12 21:54:39;;;;;;;8.13;5.97;;;24.30;75.90;;;;;;10367793;28;20597;-60
2023/09/12 21:59:41;;;;;;;6.15;5.55;;;24.30;75.80;;;;;;10367765;28;20030;-60
2023/09/12 22:04:42;;;;;;;7.43;5.82;;;24.30;75.80;;;;;;10367426;28;20038;-60
2023/09/12 22:09:43;;;;;;;8.20;6.88;;;24.30;75.80;;;;;;10372832;28;20645;-60
2023/09/12 22:14:44;;;;;;;6.82;5.50;;;24.30;75.80;;;;;;10378702;28;20041;-58
2023/09/12 22:19:45;;;;;;;6.15;5.55;;;24.30;75.80;;;;;;10416533;28;20388;-60
2023/09/12 22:24:45;;;;;;;7.13;6.07;;;24.30;75.80;;;;;;10387040;28;20537;-60
2023/09/12 22:29:46;;;;;;;6.57;5.75;;;24.30;75.80;;;;;;10395633;28;20029;-60
2023/09/12 22:34:47;;;;;;;7.97;5.78;;;24.30;75.80;;;;;;10376400;28;20092;-59
2023/09/12 22:39:50;;;;;;;6.40;5.65;;;24.30;75.80;;;;;;10375003;28;20369;-59
2023/09/12 22:44:50;;;;;;;6.55;5.85;;;24.30;75.80;;;;;;10374219;28;20030;-60
2023/09/12 22:49:51;;;;;;;8.00;5.60;;;24.30;75.90;;;;;;10374692;28;20022;-60
2023/09/12 22:54:52;;;;;;;7.07;5.60;;;24.30;75.90;;;;;;10373740;28;20033;-58
2023/09/12 22:59:52;;;;;;;5.95;5.20;;;24.30;75.80;;;;;;10374478;28;20338;-60
2023/09/12 23:04:53;;;;;;;8.52;5.63;;;24.20;75.80;;;;;;10373212;28;20041;-59
2023/09/12 23:09:54;;;;;;;7.35;5.25;;;24.30;75.80;;;;;;10373893;28;20033;-59
2023/09/12 23:14:55;;;;;;;6.97;6.10;;;24.30;75.80;;;;;;10378045;28;20401;-59
2023/09/12 23:19:56;;;;;;;7.30;5.15;;;24.20;75.80;;;;;;10414334;28;20834;-59
2023/09/12 23:24:56;;;;;;;5.68;5.13;;;24.20;75.80;;;;;;10384060;28;20088;-59
2023/09/12 23:29:57;;;;;;;5.68;5.15;;;24.20;75.80;;;;;;10392968;28;20481;-59
2023/09/12 23:34:58;;;;;;;6.28;5.13;;;24.20;75.70;;;;;;10372685;28;20541;-60
2023/09/12 23:39:59;;;;;;;6.80;5.95;;;24.20;75.70;;;;;;10372630;28;20037;-59
2023/09/12 23:45:02;;;;;;;8.55;5.68;;;24.20;75.70;;;;;;10372035;28;20029;-59
2023/09/12 23:50:03;;;;;;;6.38;5.47;;;24.20;75.80;;;;;;10372699;28;20107;-59
2023/09/12 23:55:04;;;;;;;7.78;6.10;;;24.20;75.70;;;;;;10384951;28;20547;-59
